DAUO/ELU METAR and TAF weather

Enter ICAO airport designator
Station Type Date Time Source
DAUO METAR 2022/11/30 16:00 UTC NOAA

DAUO 301600Z 29006KT 9999 FEW040 18/01 Q1014


Station Type Date Time Source
DAUO Decoded METAR 2022/11/30 16:00 UTC NOAA

El Oued, Algeria (DAUO) 33-30N 006-07E 63M
Nov 30, 2022 - 11:00 AM EST / 2022.11.30 1600 UTC
Wind: from the WNW (290 degrees) at 7 MPH (6 KT):0
Visibility: greater than 7 mile(s):0
Sky conditions: mostly clear
Temperature: 64 F (18 C)
Dew Point: 33 F (1 C)
Relative Humidity: 31%
Pressure (altimeter): 29.94 in. Hg (1014 hPa)
ob: DAUO 301600Z 29006KT 9999 FEW040 18/01 Q1014
cycle: 16

Station Type Date Time Source
DAUO TAF 2021/07/18 12:00 UTC NOAA

TAF DAUO 181100Z 1812/1821 10010KT CAVOK

Example: see airport list